sensor_id;sensor_type;location;lat;lon;timestamp;pressure;altitude;pressure_sealevel;temperature;humidity
74435;BME280;62867;52.038;29.256;2024-01-30T00:04:21;1040.9;;;-0.1;63.5
74435;BME280;62867;52.038;29.256;2024-01-30T00:08:57;1040.9;;;-0.2;63.6
74435;BME280;62867;52.038;29.256;2024-01-30T00:14:33;1040.9;;;-0.2;63.8
74435;BME280;62867;52.038;29.256;2024-01-30T00:18:57;1040.9;;;-0.3;63.8
74435;BME280;62867;52.038;29.256;2024-01-30T00:24:33;1040.9;;;-0.3;63.9
74435;BME280;62867;52.038;29.256;2024-01-30T00:29:11;1040.8;;;-0.3;64.3
74435;BME280;62867;52.038;29.256;2024-01-30T00:34:45;1040.8;;;-0.3;64.3
74435;BME280;62867;52.038;29.256;2024-01-30T00:39:11;1040.8;;;-0.4;64.6
74435;BME280;62867;52.038;29.256;2024-01-30T00:43:59;1040.7;;;-0.4;64.5
74435;BME280;62867;52.038;29.256;2024-01-30T00:49:21;1040.7;;;-0.4;64.5
74435;BME280;62867;52.038;29.256;2024-01-30T00:54:01;1040.7;;;-0.4;64.6
74435;BME280;62867;52.038;29.256;2024-01-30T00:59:45;1040.7;;;-0.4;64.6
74435;BME280;62867;52.038;29.256;2024-01-30T01:03:57;1040.6;;;-0.5;64.6
74435;BME280;62867;52.038;29.256;2024-01-30T01:09:01;1040.5;;;-0.5;64.2
74435;BME280;62867;52.038;29.256;2024-01-30T01:14:31;1040.4;;;-0.5;64.3
74435;BME280;62867;52.038;29.256;2024-01-30T01:19:45;1040.4;;;-0.5;64.6
74435;BME280;62867;52.038;29.256;2024-01-30T01:24:13;1040.4;;;-0.5;65
74435;BME280;62867;52.038;29.256;2024-01-30T01:29:33;1040.4;;;-0.4;65.1
74435;BME280;62867;52.038;29.256;2024-01-30T01:34:25;1040.3;;;-0.4;64.8
74435;BME280;62867;52.038;29.256;2024-01-30T01:39:45;1040.2;;;-0.5;64.8
74435;BME280;62867;52.038;29.256;2024-01-30T01:44:19;1040.1;;;-0.4;65
74435;BME280;62867;52.038;29.256;2024-01-30T01:49:33;1040.1;;;-0.4;65
74435;BME280;62867;52.038;29.256;2024-01-30T01:54:45;1040.1;;;-0.4;65
74435;BME280;62867;52.038;29.256;2024-01-30T01:59:45;1040.1;;;-0.4;64.9
74435;BME280;62867;52.038;29.256;2024-01-30T02:04:31;1040.1;;;-0.4;64.6
74435;BME280;62867;52.038;29.256;2024-01-30T02:09:45;1040.1;;;-0.5;64.4
74435;BME280;62867;52.038;29.256;2024-01-30T02:14:48;1040.1;;;-0.5;64.3
74435;BME280;62867;52.038;29.256;2024-01-30T02:19:39;1040;;;-0.5;64.1
74435;BME280;62867;52.038;29.256;2024-01-30T02:24:45;1040;;;-0.6;64.5
74435;BME280;62867;52.038;29.256;2024-01-30T02:29:11;1039.9;;;-0.7;64.4
74435;BME280;62867;52.038;29.256;2024-01-30T02:33:57;1039.8;;;-0.7;64.7
74435;BME280;62867;52.038;29.256;2024-01-30T02:38:57;1039.8;;;-0.7;65
74435;BME280;62867;52.038;29.256;2024-01-30T02:44:03;1039.7;;;-0.7;64.7
74435;BME280;62867;52.038;29.256;2024-01-30T02:48:57;1039.6;;;-0.8;64.9
74435;BME280;62867;52.038;29.256;2024-01-30T02:54:25;1039.5;;;-0.8;64.9
74435;BME280;62867;52.038;29.256;2024-01-30T02:58:57;1039.5;;;-0.8;64.8
74435;BME280;62867;52.038;29.256;2024-01-30T03:04:45;1039.5;;;-0.8;64.8
74435;BME280;62867;52.038;29.256;2024-01-30T03:09:25;1039.5;;;-0.9;64.8
74435;BME280;62867;52.038;29.256;2024-01-30T03:14:47;1039.4;;;-0.9;64.7
74435;BME280;62867;52.038;29.256;2024-01-30T03:19:37;1039.3;;;-0.9;64.7
74435;BME280;62867;52.038;29.256;2024-01-30T03:24:34;1039.3;;;-0.9;64.8
74435;BME280;62867;52.038;29.256;2024-01-30T03:29:45;1039.3;;;-0.9;65
74435;BME280;62867;52.038;29.256;2024-01-30T03:34:29;1039.3;;;-0.9;65.4
74435;BME280;62867;52.038;29.256;2024-01-30T03:39:34;1039.2;;;-0.9;65.3
74435;BME280;62867;52.038;29.256;2024-01-30T03:44:45;1039.1;;;-0.9;65.2
74435;BME280;62867;52.038;29.256;2024-01-30T03:49:31;1039.1;;;-0.8;65.3
74435;BME280;62867;52.038;29.256;2024-01-30T03:54:27;1039.2;;;-0.8;65
74435;BME280;62867;52.038;29.256;2024-01-30T03:59:47;1039.2;;;-0.8;65.1
74435;BME280;62867;52.038;29.256;2024-01-30T04:03:57;1039.2;;;-0.8;64.7
74435;BME280;62867;52.038;29.256;2024-01-30T04:09:21;1039.1;;;-0.8;64.7
74435;BME280;62867;52.038;29.256;2024-01-30T04:13:57;1039.1;;;-0.9;64.7
74435;BME280;62867;52.038;29.256;2024-01-30T04:19:36;1039.1;;;-0.9;64.5
74435;BME280;62867;52.038;29.256;2024-01-30T04:24:07;1039.1;;;-1;65
74435;BME280;62867;52.038;29.256;2024-01-30T04:29:15;1039;;;-1;64.9
74435;BME280;62867;52.038;29.256;2024-01-30T04:34:09;1039;;;-1;64.9
74435;BME280;62867;52.038;29.256;2024-01-30T04:39:47;1038.9;;;-1;65.1
74435;BME280;62867;52.038;29.256;2024-01-30T04:44:27;1038.9;;;-1;65.5
74435;BME280;62867;52.038;29.256;2024-01-30T04:48:57;1038.9;;;-1;65.2
74435;BME280;62867;52.038;29.256;2024-01-30T04:54:45;1038.8;;;-1;65.4
74435;BME280;62867;52.038;29.256;2024-01-30T04:59:45;1038.8;;;-1;65.3
74435;BME280;62867;52.038;29.256;2024-01-30T05:04:31;1038.8;;;-1;65.4
74435;BME280;62867;52.038;29.256;2024-01-30T05:08:57;1038.7;;;-1;65.8
74435;BME280;62867;52.038;29.256;2024-01-30T05:14:31;1038.7;;;-1;65.8
74435;BME280;62867;52.038;29.256;2024-01-30T05:19:39;1038.7;;;-1;65.9
74435;BME280;62867;52.038;29.256;2024-01-30T05:24:45;1038.7;;;-1;66
74435;BME280;62867;52.038;29.256;2024-01-30T05:29:06;1038.7;;;-1;65.7
74435;BME280;62867;52.038;29.256;2024-01-30T05:34:31;1038.7;;;-1;65.8
74435;BME280;62867;52.038;29.256;2024-01-30T05:39:25;1038.7;;;-1;65.8
74435;BME280;62867;52.038;29.256;2024-01-30T05:44:45;1038.7;;;-1;66.1
74435;BME280;62867;52.038;29.256;2024-01-30T05:49:15;1038.6;;;-0.9;66.2
74435;BME280;62867;52.038;29.256;2024-01-30T05:54:15;1038.5;;;-0.9;66
74435;BME280;62867;52.038;29.256;2024-01-30T05:58:57;1038.5;;;-0.8;66
74435;BME280;62867;52.038;29.256;2024-01-30T06:03:57;1038.5;;;-0.7;66.3
74435;BME280;62867;52.038;29.256;2024-01-30T06:09:21;1038.5;;;-0.7;66.2
74435;BME280;62867;52.038;29.256;2024-01-30T06:14:45;1038.5;;;-0.6;66.1
74435;BME280;62867;52.038;29.256;2024-01-30T06:19:35;1038.4;;;-0.5;65.8
74435;BME280;62867;52.038;29.256;2024-01-30T06:24:15;1038.4;;;-0.5;66
74435;BME280;62867;52.038;29.256;2024-01-30T06:29:35;1038.4;;;-0.4;66.2
74435;BME280;62867;52.038;29.256;2024-01-30T06:33:57;1038.5;;;-0.3;66
74435;BME280;62867;52.038;29.256;2024-01-30T06:39:31;1038.5;;;-0.1;65.7
74435;BME280;62867;52.038;29.256;2024-01-30T06:44:21;1038.6;;;0;65.6
74435;BME280;62867;52.038;29.256;2024-01-30T06:49:35;1038.6;;;0.2;65.8
74435;BME280;62867;52.038;29.256;2024-01-30T06:53:57;1038.6;;;0.3;65.5
74435;BME280;62867;52.038;29.256;2024-01-30T06:59:44;1038.7;;;0.4;65.2
74435;BME280;62867;52.038;29.256;2024-01-30T07:04:31;1038.6;;;0.5;65.2
74435;BME280;62867;52.038;29.256;2024-01-30T07:09:31;1038.6;;;0.6;65.1
74435;BME280;62867;52.038;29.256;2024-01-30T07:14:11;1038.6;;;0.7;64.8
74435;BME280;62867;52.038;29.256;2024-01-30T07:19:07;1038.5;;;0.9;64.6
74435;BME280;62867;52.038;29.256;2024-01-30T07:24:15;1038.5;;;0.9;64.6
74435;BME280;62867;52.038;29.256;2024-01-30T07:29:01;1038.4;;;1.1;64.4
74435;BME280;62867;52.038;29.256;2024-01-30T07:34:03;1038.3;;;1.2;64.3
74435;BME280;62867;52.038;29.256;2024-01-30T07:38:57;1038.3;;;1.3;64.3
74435;BME280;62867;52.038;29.256;2024-01-30T07:43:57;1038.3;;;1.4;64.2
74435;BME280;62867;52.038;29.256;2024-01-30T07:49:35;1038.3;;;1.6;64
74435;BME280;62867;52.038;29.256;2024-01-30T07:54:44;1038.3;;;1.7;63.8
74435;BME280;62867;52.038;29.256;2024-01-30T07:59:01;1038.3;;;1.8;63.5
74435;BME280;62867;52.038;29.256;2024-01-30T08:04:33;1038.2;;;1.9;63.5
74435;BME280;62867;52.038;29.256;2024-01-30T08:09:13;1038.2;;;2.2;63.2
74435;BME280;62867;52.038;29.256;2024-01-30T08:14:11;1038.2;;;2.4;62.6
74435;BME280;62867;52.038;29.256;2024-01-30T08:19:15;1038.2;;;2.5;62.3
74435;BME280;62867;52.038;29.256;2024-01-30T08:24:33;1038.1;;;2.7;62.1
74435;BME280;62867;52.038;29.256;2024-01-30T08:29:19;1038.1;;;2.9;61.7
74435;BME280;62867;52.038;29.256;2024-01-30T08:34:33;1038.1;;;3.1;61.4
74435;BME280;62867;52.038;29.256;2024-01-30T08:39:24;1038.1;;;3.3;61.2
74435;BME280;62867;52.038;29.256;2024-01-30T08:44:43;1038.1;;;3.5;61.1
74435;BME280;62867;52.038;29.256;2024-01-30T08:49:37;1038.1;;;3.9;60.6
74435;BME280;62867;52.038;29.256;2024-01-30T08:54:23;1038;;;4.1;60.3
74435;BME280;62867;52.038;29.256;2024-01-30T08:59:43;1038;;;4.3;60
74435;BME280;62867;52.038;29.256;2024-01-30T09:04:09;1038;;;4.4;59.7
74435;BME280;62867;52.038;29.256;2024-01-30T09:09:02;1038;;;4.5;59.1
74435;BME280;62867;52.038;29.256;2024-01-30T09:13:57;1037.9;;;4.5;58.9
74435;BME280;62867;52.038;29.256;2024-01-30T09:19:07;1038;;;4.4;59
74435;BME280;62867;52.038;29.256;2024-01-30T09:24:01;1038;;;4.4;58.9
74435;BME280;62867;52.038;29.256;2024-01-30T09:29:25;1037.9;;;4.4;58.9
74435;BME280;62867;52.038;29.256;2024-01-30T09:34:25;1037.9;;;4.6;59
74435;BME280;62867;52.038;29.256;2024-01-30T09:39:45;1037.8;;;4.7;58.6
74435;BME280;62867;52.038;29.256;2024-01-30T09:44:05;1037.7;;;4.8;58.6
74435;BME280;62867;52.038;29.256;2024-01-30T09:49:27;1037.6;;;4.9;58.5
74435;BME280;62867;52.038;29.256;2024-01-30T09:54:21;1037.6;;;5;58.6
74435;BME280;62867;52.038;29.256;2024-01-30T09:59:35;1037.6;;;5.1;58.3
74435;BME280;62867;52.038;29.256;2024-01-30T10:04:47;1037.5;;;5.1;57.8
74435;BME280;62867;52.038;29.256;2024-01-30T10:09:36;1037.4;;;5.1;57.6
74435;BME280;62867;52.038;29.256;2024-01-30T10:14:31;1037.3;;;5.3;57.4
74435;BME280;62867;52.038;29.256;2024-01-30T10:19:46;1037.2;;;5.3;57.2
74435;BME280;62867;52.038;29.256;2024-01-30T10:24:45;1037.1;;;5.5;56.9
74435;BME280;62867;52.038;29.256;2024-01-30T10:28:59;1037.1;;;5.6;56.4
74435;BME280;62867;52.038;29.256;2024-01-30T10:34:45;1037;;;5.6;56.4
74435;BME280;62867;52.038;29.256;2024-01-30T10:39:05;1037;;;5.9;56.3
74435;BME280;62867;52.038;29.256;2024-01-30T10:44:34;1037;;;6.1;56
74435;BME280;62867;52.038;29.256;2024-01-30T10:49:08;1037;;;6.3;56
74435;BME280;62867;52.038;29.256;2024-01-30T10:54:22;1037;;;6.4;55.7
74435;BME280;62867;52.038;29.256;2024-01-30T10:58:58;1037;;;6.5;55.5
74435;BME280;62867;52.038;29.256;2024-01-30T11:04:16;1036.9;;;6.6;54.7
74435;BME280;62867;52.038;29.256;2024-01-30T11:09:17;1036.8;;;6.8;54.1
74435;BME280;62867;52.038;29.256;2024-01-30T11:14:45;1036.8;;;7;53.9
74435;BME280;62867;52.038;29.256;2024-01-30T11:19:26;1036.8;;;7.1;53.3
74435;BME280;62867;52.038;29.256;2024-01-30T11:24:41;1036.7;;;7.2;52.9
74435;BME280;62867;52.038;29.256;2024-01-30T11:28:57;1036.6;;;7.3;52.5
74435;BME280;62867;52.038;29.256;2024-01-30T11:34:34;1036.6;;;7.4;52.6
74435;BME280;62867;52.038;29.256;2024-01-30T11:39:41;1036.6;;;7.5;52.7
74435;BME280;62867;52.038;29.256;2024-01-30T11:44:46;1036.5;;;7.5;52.4
74435;BME280;62867;52.038;29.256;2024-01-30T11:49:31;1036.4;;;7.7;52.1
74435;BME280;62867;52.038;29.256;2024-01-30T11:54:43;1036.3;;;7.8;51.8
74435;BME280;62867;52.038;29.256;2024-01-30T11:59:44;1036.2;;;7.9;51.7
74435;BME280;62867;52.038;29.256;2024-01-30T12:04:27;1036.2;;;8;51.2
74435;BME280;62867;52.038;29.256;2024-01-30T12:09:52;1036.1;;;8.2;50.5
74435;BME280;62867;52.038;29.256;2024-01-30T12:14:05;1036.1;;;8.3;50.1
74435;BME280;62867;52.038;29.256;2024-01-30T12:18:59;1036;;;8.4;50
74435;BME280;62867;52.038;29.256;2024-01-30T12:24:09;1036;;;8.4;49.6
74435;BME280;62867;52.038;29.256;2024-01-30T12:28:58;1036;;;8.7;49.4
74435;BME280;62867;52.038;29.256;2024-01-30T12:34:10;1035.9;;;8.8;49.3
74435;BME280;62867;52.038;29.256;2024-01-30T12:39:00;1035.9;;;8.6;49.8
74435;BME280;62867;52.038;29.256;2024-01-30T12:44:14;1036;;;8.3;49.7
74435;BME280;62867;52.038;29.256;2024-01-30T12:49:42;1036;;;7.8;50.3
74435;BME280;62867;52.038;29.256;2024-01-30T12:54:24;1035.9;;;7.5;51
74435;BME280;62867;52.038;29.256;2024-01-30T12:59:26;1035.9;;;7.2;51.3
74435;BME280;62867;52.038;29.256;2024-01-30T13:04:44;1035.8;;;6.8;51.5
74435;BME280;62867;52.038;29.256;2024-01-30T13:09:34;1035.7;;;6.5;52
74435;BME280;62867;52.038;29.256;2024-01-30T13:14:32;1035.7;;;6.3;51.7
74435;BME280;62867;52.038;29.256;2024-01-30T13:19:16;1035.6;;;6.2;52
74435;BME280;62867;52.038;29.256;2024-01-30T13:24:32;1035.6;;;6.1;52.1
74435;BME280;62867;52.038;29.256;2024-01-30T13:29:20;1035.6;;;6;52.8
74435;BME280;62867;52.038;29.256;2024-01-30T13:34:44;1035.6;;;5.9;52.8
74435;BME280;62867;52.038;29.256;2024-01-30T13:39:44;1035.6;;;5.8;53.7
74435;BME280;62867;52.038;29.256;2024-01-30T13:44:24;1035.6;;;5.7;54
74435;BME280;62867;52.038;29.256;2024-01-30T13:49:04;1035.5;;;5.6;53.8
74435;BME280;62867;52.038;29.256;2024-01-30T13:54:44;1035.5;;;5.6;53.8
74435;BME280;62867;52.038;29.256;2024-01-30T13:59:06;1035.5;;;5.5;54.1
74435;BME280;62867;52.038;29.256;2024-01-30T14:03:58;1035.5;;;5.5;54.3
74435;BME280;62867;52.038;29.256;2024-01-30T14:08:58;1035.5;;;5.5;54.5
74435;BME280;62867;52.038;29.256;2024-01-30T14:13:58;1035.5;;;5.5;54.6
74435;BME280;62867;52.038;29.256;2024-01-30T14:19:30;1035.5;;;5.6;54.6
74435;BME280;62867;52.038;29.256;2024-01-30T14:24:42;1035.5;;;5.5;54.5
74435;BME280;62867;52.038;29.256;2024-01-30T14:29:22;1035.5;;;5.6;54.9
74435;BME280;62867;52.038;29.256;2024-01-30T14:34:14;1035.5;;;5.6;54.7
74435;BME280;62867;52.038;29.256;2024-01-30T14:39:30;1035.5;;;5.6;55.5
74435;BME280;62867;52.038;29.256;2024-01-30T14:44:14;1035.4;;;5.5;55.6
74435;BME280;62867;52.038;29.256;2024-01-30T14:49:42;1035.4;;;5.5;56.1
74435;BME280;62867;52.038;29.256;2024-01-30T14:54:16;1035.4;;;5.4;56.5
74435;BME280;62867;52.038;29.256;2024-01-30T14:59:42;1035.4;;;5.3;56.5
74435;BME280;62867;52.038;29.256;2024-01-30T15:04:20;1035.4;;;5.2;56.7
74435;BME280;62867;52.038;29.256;2024-01-30T15:09:34;1035.4;;;5.1;57
74435;BME280;62867;52.038;29.256;2024-01-30T15:14:10;1035.4;;;5.1;56.8
74435;BME280;62867;52.038;29.256;2024-01-30T15:19:30;1035.4;;;5;57.2
74435;BME280;62867;52.038;29.256;2024-01-30T15:24:02;1035.4;;;5.1;56.9
74435;BME280;62867;52.038;29.256;2024-01-30T15:29:42;1035.3;;;5;56.7
74435;BME280;62867;52.038;29.256;2024-01-30T15:34:02;1035.2;;;5;56.4
74435;BME280;62867;52.038;29.256;2024-01-30T15:39:16;1035.2;;;5.1;56.5
74435;BME280;62867;52.038;29.256;2024-01-30T15:43:58;1035.1;;;5;56.5
74435;BME280;62867;52.038;29.256;2024-01-30T15:48:58;1035.1;;;5;56.4
74435;BME280;62867;52.038;29.256;2024-01-30T15:54:16;1035.1;;;5;56
74435;BME280;62867;52.038;29.256;2024-01-30T15:59:42;1035;;;5;56
74435;BME280;62867;52.038;29.256;2024-01-30T16:04:42;1035;;;5;56
74435;BME280;62867;52.038;29.256;2024-01-30T16:09:24;1035.1;;;5;56.3
74435;BME280;62867;52.038;29.256;2024-01-30T16:14:42;1035;;;5;56.1
74435;BME280;62867;52.038;29.256;2024-01-30T16:19:34;1035;;;5;56.2
74435;BME280;62867;52.038;29.256;2024-01-30T16:24:00;1035;;;5;56.2
74435;BME280;62867;52.038;29.256;2024-01-30T16:29:16;1034.9;;;5;56.2
74435;BME280;62867;52.038;29.256;2024-01-30T16:34:34;1034.8;;;4.9;56.4
74435;BME280;62867;52.038;29.256;2024-01-30T16:39:20;1034.8;;;4.9;56
74435;BME280;62867;52.038;29.256;2024-01-30T16:44:12;1034.8;;;4.9;56.1
74435;BME280;62867;52.038;29.256;2024-01-30T16:49:06;1034.8;;;4.9;56
74435;BME280;62867;52.038;29.256;2024-01-30T16:54:42;1034.8;;;4.9;55.7
74435;BME280;62867;52.038;29.256;2024-01-30T16:59:24;1034.8;;;4.9;55.3
74435;BME280;62867;52.038;29.256;2024-01-30T17:04:42;1034.8;;;4.9;55.6
74435;BME280;62867;52.038;29.256;2024-01-30T17:09:42;1034.8;;;4.9;56.1
74435;BME280;62867;52.038;29.256;2024-01-30T17:13:58;1034.7;;;4.9;55.7
74435;BME280;62867;52.038;29.256;2024-01-30T17:19:04;1034.7;;;4.9;56
74435;BME280;62867;52.038;29.256;2024-01-30T17:24:04;1034.7;;;4.8;55.9
74435;BME280;62867;52.038;29.256;2024-01-30T17:29:16;1034.6;;;4.8;56.1
74435;BME280;62867;52.038;29.256;2024-01-30T17:34:32;1034.6;;;4.8;55.8
74435;BME280;62867;52.038;29.256;2024-01-30T17:39:46;1034.6;;;4.8;56.2
74435;BME280;62867;52.038;29.256;2024-01-30T17:44:16;1034.6;;;4.8;56.3
74435;BME280;62867;52.038;29.256;2024-01-30T17:49:46;1034.6;;;4.8;56.2
74435;BME280;62867;52.038;29.256;2024-01-30T17:54:26;1034.6;;;4.8;56.1
74435;BME280;62867;52.038;29.256;2024-01-30T17:59:46;1034.6;;;4.8;56.2
74435;BME280;62867;52.038;29.256;2024-01-30T18:04:32;1034.6;;;4.8;56.3
74435;BME280;62867;52.038;29.256;2024-01-30T18:09:24;1034.6;;;4.8;56.3
74435;BME280;62867;52.038;29.256;2024-01-30T18:14:46;1034.6;;;4.7;56.2
74435;BME280;62867;52.038;29.256;2024-01-30T18:19:46;1034.5;;;4.8;56.3
74435;BME280;62867;52.038;29.256;2024-01-30T18:24:28;1034.5;;;4.8;56.1
74435;BME280;62867;52.038;29.256;2024-01-30T18:29:46;1034.5;;;4.8;56.3
74435;BME280;62867;52.038;29.256;2024-01-30T18:34:47;1034.5;;;4.7;56.5
74435;BME280;62867;52.038;29.256;2024-01-30T18:39:27;1034.5;;;4.7;56.4
74435;BME280;62867;52.038;29.256;2024-01-30T18:44:46;1034.5;;;4.6;56.8
74435;BME280;62867;52.038;29.256;2024-01-30T18:49:26;1034.4;;;4.6;56.4
74435;BME280;62867;52.038;29.256;2024-01-30T18:53:58;1034.4;;;4.6;56.1
74435;BME280;62867;52.038;29.256;2024-01-30T18:59:18;1034.4;;;4.6;56.4
74435;BME280;62867;52.038;29.256;2024-01-30T19:03:58;1034.4;;;4.5;56.1
74435;BME280;62867;52.038;29.256;2024-01-30T19:09:04;1034.4;;;4.5;56.5
74435;BME280;62867;52.038;29.256;2024-01-30T19:13:58;1034.4;;;4.4;56.8
74435;BME280;62867;52.038;29.256;2024-01-30T19:19:30;1034.4;;;4.4;57
74435;BME280;62867;52.038;29.256;2024-01-30T19:24:40;1034.4;;;4.4;56.8
74435;BME280;62867;52.038;29.256;2024-01-30T19:29:26;1034.4;;;4.4;56.9
74435;BME280;62867;52.038;29.256;2024-01-30T19:34:44;1034.4;;;4.4;56.5
74435;BME280;62867;52.038;29.256;2024-01-30T19:38:58;1034.3;;;4.4;56.7
74435;BME280;62867;52.038;29.256;2024-01-30T19:44:36;1034.3;;;4.4;56.7
74435;BME280;62867;52.038;29.256;2024-01-30T19:49:46;1034.2;;;4.4;56.8
74435;BME280;62867;52.038;29.256;2024-01-30T19:54:46;1034.2;;;4.4;56.6
74435;BME280;62867;52.038;29.256;2024-01-30T19:59:32;1034.2;;;4.4;56.9
74435;BME280;62867;52.038;29.256;2024-01-30T20:04:46;1034.2;;;4.4;56.8
74435;BME280;62867;52.038;29.256;2024-01-30T20:09:46;1034.2;;;4.3;57
74435;BME280;62867;52.038;29.256;2024-01-30T20:14:18;1034.1;;;4.3;56.7
74435;BME280;62867;52.038;29.256;2024-01-30T20:19:46;1034;;;4.3;56.8
74435;BME280;62867;52.038;29.256;2024-01-30T20:24:12;1034;;;4.2;57
74435;BME280;62867;52.038;29.256;2024-01-30T20:29:32;1034;;;4.2;57
74435;BME280;62867;52.038;29.256;2024-01-30T20:34:10;1033.9;;;4.1;57.2
74435;BME280;62867;52.038;29.256;2024-01-30T20:38:58;1033.9;;;4;57.4
74435;BME280;62867;52.038;29.256;2024-01-30T20:44:12;1033.9;;;4;57.5
74435;BME280;62867;52.038;29.256;2024-01-30T20:48:58;1033.9;;;3.9;57.4
74435;BME280;62867;52.038;29.256;2024-01-30T20:54:36;1033.8;;;3.9;57.5
74435;BME280;62867;52.038;29.256;2024-01-30T20:59:36;1033.8;;;3.8;57.5
74435;BME280;62867;52.038;29.256;2024-01-30T21:04:26;1033.8;;;3.7;57.8
74435;BME280;62867;52.038;29.256;2024-01-30T21:09:10;1033.7;;;3.6;57.7
74435;BME280;62867;52.038;29.256;2024-01-30T21:14:46;1033.7;;;3.6;57.8
74435;BME280;62867;52.038;29.256;2024-01-30T21:19:30;1033.7;;;3.5;58.2
74435;BME280;62867;52.038;29.256;2024-01-30T21:24:32;1033.7;;;3.4;58.4
74435;BME280;62867;52.038;29.256;2024-01-30T21:29:36;1033.6;;;3.4;58.7
74435;BME280;62867;52.038;29.256;2024-01-30T21:34:32;1033.6;;;3.3;58.7
74435;BME280;62867;52.038;29.256;2024-01-30T21:39:32;1033.7;;;3.3;58.9
74435;BME280;62867;52.038;29.256;2024-01-30T21:44:46;1033.7;;;3.2;58.7
74435;BME280;62867;52.038;29.256;2024-01-30T21:49:06;1033.7;;;3.1;58.8
74435;BME280;62867;52.038;29.256;2024-01-30T21:54:32;1033.6;;;3;58.8
74435;BME280;62867;52.038;29.256;2024-01-30T21:59:04;1033.6;;;2.9;59.1
74435;BME280;62867;52.038;29.256;2024-01-30T22:04:46;1033.6;;;2.8;59.2
74435;BME280;62867;52.038;29.256;2024-01-30T22:09:32;1033.6;;;2.7;59.6
74435;BME280;62867;52.038;29.256;2024-01-30T22:13:58;1033.7;;;2.7;59.9
74435;BME280;62867;52.038;29.256;2024-01-30T22:19:26;1033.7;;;2.7;60.2
74435;BME280;62867;52.038;29.256;2024-01-30T22:24:16;1033.7;;;2.6;60.3
74435;BME280;62867;52.038;29.256;2024-01-30T22:29:41;1033.6;;;2.6;60.4
74435;BME280;62867;52.038;29.256;2024-01-30T22:34:49;1033.6;;;2.6;60.3
74435;BME280;62867;52.038;29.256;2024-01-30T22:39:46;1033.5;;;2.6;60.3
74435;BME280;62867;52.038;29.256;2024-01-30T22:43:58;1033.4;;;2.5;60.4
74435;BME280;62867;52.038;29.256;2024-01-30T22:49:34;1033.5;;;2.5;60.3
74435;BME280;62867;52.038;29.256;2024-01-30T22:54:10;1033.4;;;2.5;60.5
74435;BME280;62867;52.038;29.256;2024-01-30T22:59:00;1033.4;;;2.5;60.6
74435;BME280;62867;52.038;29.256;2024-01-30T23:04:04;1033.4;;;2.4;60.3
74435;BME280;62867;52.038;29.256;2024-01-30T23:09:13;1033.4;;;2.4;60.7
74435;BME280;62867;52.038;29.256;2024-01-30T23:14:32;1033.4;;;2.3;61
74435;BME280;62867;52.038;29.256;2024-01-30T23:19:46;1033.4;;;2.3;61
74435;BME280;62867;52.038;29.256;2024-01-30T23:24:04;1033.4;;;2.3;61.1
74435;BME280;62867;52.038;29.256;2024-01-30T23:29:46;1033.3;;;2.3;61.1
74435;BME280;62867;52.038;29.256;2024-01-30T23:34:04;1033.3;;;2.2;61.2
74435;BME280;62867;52.038;29.256;2024-01-30T23:39:46;1033.3;;;2.2;61.5
74435;BME280;62867;52.038;29.256;2024-01-30T23:43:58;1033.2;;;2.2;61.3
74435;BME280;62867;52.038;29.256;2024-01-30T23:48:58;1033.2;;;2.2;61.2
74435;BME280;62867;52.038;29.256;2024-01-30T23:54:32;1033.2;;;2.1;61.3
74435;BME280;62867;52.038;29.256;2024-01-30T23:59:16;1033.2;;;2.1;61.5
